Time;durP1;ratioP1;P1;durP2;ratioP2;P2;SDS_P1;SDS_P2;PMS_P1;PMS_P2;Temp;Humidity;BMP_temperature;BMP_pressure;BME280_temperature;BME280_humidity;BME280_pressure;Samples;Min_cycle;Max_cycle;Signal;HPM_P1;HPM_P2
2023/04/23 00:01:18;;;;;;;81.30;40.00;;;;;;;-144.85;100.00;61331.59;5026483;28;32334;-83
2023/04/23 00:03:48;;;;;;;81.05;39.35;;;;;;;-144.85;100.00;61331.59;5011980;28;31394;-87
2023/04/23 00:06:16;;;;;;;73.80;38.28;;;;;;;-144.85;100.00;61331.59;5026181;28;32923;-83
2023/04/23 00:08:44;;;;;;;76.97;38.67;;;;;;;-144.85;100.00;61331.59;5011118;28;30640;-85
2023/04/23 00:11:12;;;;;;;75.07;37.65;;;;;;;-144.85;100.00;61331.59;5016782;28;29920;-85
2023/04/23 00:13:40;;;;;;;75.28;38.22;;;;;;;-144.85;100.00;61331.59;5034087;28;32479;-83
2023/04/23 00:16:09;;;;;;;75.72;38.30;;;;;;;-144.85;100.00;61331.59;5011695;28;31329;-84
2023/04/23 00:18:37;;;;;;;77.82;38.83;;;;;;;-144.85;100.00;61331.59;5029098;28;33048;-83
2023/04/23 00:21:04;;;;;;;75.25;38.88;;;;;;;-144.85;100.00;61331.59;5027770;28;32695;-85
2023/04/23 00:23:31;;;;;;;78.45;39.60;;;;;;;-144.85;100.00;61331.59;5012017;28;31616;-84
2023/04/23 00:25:58;;;;;;;76.85;39.30;;;;;;;-144.85;100.00;61331.59;5019710;28;31107;-84
2023/04/23 00:28:26;;;;;;;82.45;40.13;;;;;;;-144.85;100.00;61331.59;5029139;28;31126;-83
2023/04/23 00:30:53;;;;;;;73.20;38.45;;;;;;;-144.85;100.00;61331.59;5028903;28;30144;-83
2023/04/23 00:33:20;;;;;;;69.30;37.25;;;;;;;-144.85;100.00;61331.59;5031827;28;33361;-84
2023/04/23 00:35:47;;;;;;;79.40;39.38;;;;;;;-144.85;100.00;61331.59;5033888;28;32945;-83
2023/04/23 00:38:15;;;;;;;80.18;38.83;;;;;;;-144.85;100.00;61331.59;5030518;28;32256;-83
2023/04/23 00:40:42;;;;;;;73.35;37.20;;;;;;;-144.85;100.00;61331.59;5016578;28;30516;-83
2023/04/23 00:43:10;;;;;;;71.20;35.22;;;;;;;-144.85;100.00;61331.59;5028192;28;31401;-86
2023/04/23 00:45:38;;;;;;;73.85;36.90;;;;;;;-144.85;100.00;61331.59;5026116;28;31119;-83
2023/04/23 00:48:06;;;;;;;69.32;36.60;;;;;;;-144.85;100.00;61331.59;5034717;28;32896;-86
2023/04/23 00:50:33;;;;;;;74.90;37.65;;;;;;;-144.85;100.00;61331.59;5030903;28;30498;-83
2023/04/23 00:53:00;;;;;;;77.13;37.53;;;;;;;-144.85;100.00;61331.59;5014431;28;32045;-85
2023/04/23 00:55:28;;;;;;;70.85;38.08;;;;;;;-144.85;100.00;61331.59;5033935;28;32145;-84
2023/04/23 00:57:55;;;;;;;74.22;36.03;;;;;;;-144.85;100.00;61331.59;5023557;28;30816;-84
2023/04/23 01:00:22;;;;;;;71.00;37.10;;;;;;;-144.85;100.00;61331.59;5014258;28;30432;-84
2023/04/23 01:02:51;;;;;;;72.45;34.70;;;;;;;-144.85;100.00;61331.59;5019353;28;33341;-83
2023/04/23 01:05:22;;;;;;;67.72;35.45;;;;;;;-144.85;100.00;61331.59;5020613;28;32330;-86
2023/04/23 01:07:50;;;;;;;67.40;35.22;;;;;;;-144.85;100.00;61331.59;5039813;28;31044;-84
2023/04/23 01:10:17;;;;;;;59.72;32.53;;;;;;;-144.85;100.00;61331.59;5039666;28;33230;-85
2023/04/23 01:12:45;;;;;;;64.07;32.13;;;;;;;-144.85;100.00;61331.59;5025491;28;32937;-86
2023/04/23 01:15:12;;;;;;;61.58;29.25;;;;;;;-144.85;100.00;61331.59;5040595;28;31256;-87
2023/04/23 01:17:40;;;;;;;63.92;32.03;;;;;;;-144.85;100.00;61331.59;5041269;28;31981;-85
2023/04/23 01:20:08;;;;;;;63.40;32.33;;;;;;;-144.85;100.00;61331.59;5041412;28;31815;-86
2023/04/23 01:22:36;;;;;;;59.75;31.80;;;;;;;-144.85;100.00;61331.59;5024717;28;33897;-86
2023/04/23 01:25:04;;;;;;;62.55;32.45;;;;;;;-144.85;100.00;61331.59;5023368;28;31243;-85
2023/04/23 01:27:34;;;;;;;61.38;31.88;;;;;;;-144.85;100.00;61331.59;5025723;28;31667;-85
2023/04/23 01:30:03;;;;;;;58.45;31.65;;;;;;;-144.85;100.00;61331.59;5042693;28;33012;-84
2023/04/23 01:32:31;;;;;;;59.58;31.40;;;;;;;-144.85;100.00;61331.59;5038976;28;34476;-86
2023/04/23 01:34:59;;;;;;;55.97;28.80;;;;;;;-144.85;100.00;61331.59;5041482;28;32321;-86
2023/04/23 01:37:31;;;;;;;52.33;27.45;;;;;;;-144.85;100.00;61331.59;5039649;28;32612;-85
2023/04/23 01:39:59;;;;;;;54.47;30.00;;;;;;;-144.85;100.00;61331.59;5027025;28;32976;-83
2023/04/23 01:42:27;;;;;;;58.35;29.45;;;;;;;-144.85;100.00;61331.59;5041105;28;31373;-86
2023/04/23 01:44:54;;;;;;;55.33;29.95;;;;;;;-144.85;100.00;61331.59;5039854;28;32395;-84
2023/04/23 01:47:22;;;;;;;56.47;30.05;;;;;;;-144.85;100.00;61331.59;5036147;28;33598;-85
2023/04/23 01:49:49;;;;;;;52.47;28.50;;;;;;;-144.85;100.00;61331.59;5045374;28;31498;-86
2023/04/23 01:52:16;;;;;;;52.88;28.98;;;;;;;-144.85;100.00;61331.59;5032907;28;33135;-85
2023/04/23 01:54:44;;;;;;;47.83;26.75;;;;;;;-144.85;100.00;61331.59;5018066;28;31208;-85
2023/04/23 01:57:11;;;;;;;48.15;27.85;;;;;;;-144.85;100.00;61331.59;5025673;28;33029;-85
2023/04/23 01:59:39;;;;;;;46.38;27.30;;;;;;;-144.85;100.00;61331.59;5021182;28;32059;-83
2023/04/23 02:02:12;;;;;;;47.88;26.20;;;;;;;-144.85;100.00;61331.59;5031956;28;33341;-83
2023/04/23 02:04:42;;;;;;;46.42;27.50;;;;;;;-144.85;100.00;61331.59;5029213;28;32070;-84
2023/04/23 02:07:09;;;;;;;50.20;26.02;;;;;;;-144.85;100.00;61331.59;5014828;28;32633;-83
2023/04/23 02:09:37;;;;;;;44.03;26.35;;;;;;;-144.85;100.00;61331.59;5024174;28;30855;-84
2023/04/23 02:12:04;;;;;;;47.97;26.58;;;;;;;-144.85;100.00;61331.59;5010875;28;32654;-83
2023/04/23 02:14:31;;;;;;;43.95;25.90;;;;;;;-144.85;100.00;61331.59;5011843;28;33336;-85
2023/04/23 02:16:58;;;;;;;46.03;25.73;;;;;;;-144.85;100.00;61331.59;5029316;28;31857;-83
2023/04/23 02:19:26;;;;;;;43.55;24.95;;;;;;;-144.85;100.00;61331.59;5027872;28;32498;-84
2023/04/23 02:21:54;;;;;;;45.72;25.27;;;;;;;-144.85;100.00;61331.59;5034909;28;33469;-83
2023/04/23 02:24:21;;;;;;;45.35;25.42;;;;;;;-144.85;100.00;61331.59;5011083;28;33037;-83
2023/04/23 02:26:48;;;;;;;48.65;25.63;;;;;;;-144.85;100.00;61331.59;5012115;28;31035;-83
2023/04/23 02:29:16;;;;;;;43.05;25.05;;;;;;;-144.85;100.00;61331.59;5028250;28;31207;-84
2023/04/23 02:31:43;;;;;;;42.55;25.67;;;;;;;-144.85;100.00;61331.59;5026811;28;31091;-84
2023/04/23 02:34:10;;;;;;;43.00;25.88;;;;;;;-144.85;100.00;61331.59;5028981;28;33466;-84
2023/04/23 02:36:38;;;;;;;44.40;26.25;;;;;;;-144.85;100.00;61331.59;5028184;28;31028;-83
2023/04/23 02:39:05;;;;;;;42.85;25.25;;;;;;;-144.85;100.00;61331.59;5031057;28;31507;-85
2023/04/23 02:41:32;;;;;;;40.67;25.08;;;;;;;-144.85;100.00;61331.59;5026663;28;31888;-83
2023/04/23 02:43:59;;;;;;;43.25;25.27;;;;;;;-144.85;100.00;61331.59;5017074;28;32453;-85
2023/04/23 02:46:27;;;;;;;40.30;25.27;;;;;;;-144.85;100.00;61331.59;5033507;28;31168;-83
2023/04/23 02:48:54;;;;;;;41.30;23.55;;;;;;;-144.85;100.00;61331.59;5010194;28;30259;-83
2023/04/23 02:51:22;;;;;;;41.92;25.23;;;;;;;-144.85;100.00;61331.59;5008899;28;33671;-82
2023/04/23 02:53:49;;;;;;;44.53;25.20;;;;;;;-144.85;100.00;61331.59;5028721;28;32192;-84
2023/04/23 02:56:16;;;;;;;43.50;24.95;;;;;;;-144.85;100.00;61331.59;5022912;28;31679;-83
2023/04/23 02:58:44;;;;;;;42.17;24.73;;;;;;;-144.85;100.00;61331.59;5010786;28;30173;-84
2023/04/23 03:01:11;;;;;;;42.35;25.50;;;;;;;-144.85;100.00;61331.59;5012789;28;32759;-84
2023/04/23 03:03:39;;;;;;;43.50;25.58;;;;;;;-144.85;100.00;61331.59;5026202;28;31326;-83
2023/04/23 03:06:07;;;;;;;42.38;24.45;;;;;;;-144.85;100.00;61331.59;5012310;28;32173;-85
2023/04/23 03:08:34;;;;;;;40.13;24.23;;;;;;;-144.85;100.00;61331.59;5029218;28;31109;-83
2023/04/23 03:11:01;;;;;;;39.13;24.42;;;;;;;-144.85;100.00;61331.59;5014327;28;31506;-84
2023/04/23 03:13:29;;;;;;;45.00;25.05;;;;;;;-144.85;100.00;61331.59;5033965;28;31230;-84
2023/04/23 03:15:58;;;;;;;40.03;23.98;;;;;;;-144.85;100.00;61331.59;5015794;28;30858;-83
2023/04/23 03:18:26;;;;;;;39.13;24.63;;;;;;;-144.85;100.00;61331.59;5014037;28;31908;-82
2023/04/23 03:20:55;;;;;;;38.40;23.40;;;;;;;-144.85;100.00;61331.59;5016560;28;32197;-84
2023/04/23 03:23:23;;;;;;;40.20;24.27;;;;;;;-144.85;100.00;61331.59;5017274;28;31035;-84
2023/04/23 03:25:50;;;;;;;37.72;23.92;;;;;;;-144.85;100.00;61331.59;5034655;28;32577;-85
2023/04/23 03:28:17;;;;;;;37.22;23.25;;;;;;;-144.85;100.00;61331.59;5035335;28;32396;-83
2023/04/23 03:30:45;;;;;;;39.45;23.50;;;;;;;-144.85;100.00;61331.59;5033025;28;34075;-86
2023/04/23 03:33:13;;;;;;;36.72;23.20;;;;;;;-144.85;100.00;61331.59;5016493;28;31145;-84
2023/04/23 03:35:40;;;;;;;38.67;22.63;;;;;;;-144.85;100.00;61331.59;5022982;28;30929;-83
2023/04/23 03:38:13;;;;;;;38.08;23.50;;;;;;;-144.85;100.00;61331.59;5032732;28;31950;-83
2023/04/23 03:40:40;;;;;;;35.58;22.77;;;;;;;-144.85;100.00;61331.59;5016425;28;32370;-86
2023/04/23 03:43:10;;;;;;;35.78;22.83;;;;;;;-144.85;100.00;61331.59;5031096;28;31858;-84
2023/04/23 03:46:01;;;;;;;33.80;21.75;;;;;;;-144.85;100.00;61331.59;5023496;28;33241;-84
2023/04/23 03:48:31;;;;;;;33.78;22.00;;;;;;;-144.85;100.00;61331.59;5015086;28;31460;-84
2023/04/23 03:51:01;;;;;;;33.53;21.45;;;;;;;-144.85;100.00;61331.59;5029035;28;31501;-87
2023/04/23 03:53:35;;;;;;;36.40;21.08;;;;;;;-144.85;100.00;61331.59;5011542;28;32413;-83
2023/04/23 03:56:32;;;;;;;35.72;21.77;;;;;;;-144.85;100.00;61331.59;5028358;28;32088;-84
2023/04/23 03:59:25;;;;;;;33.78;20.42;;;;;;;-144.85;100.00;61331.59;5019143;28;32981;-85
2023/04/23 04:01:55;;;;;;;33.33;20.33;;;;;;;-144.85;100.00;61331.59;5032448;28;33479;-84
2023/04/23 04:04:24;;;;;;;32.03;20.45;;;;;;;-144.85;100.00;61331.59;5025840;28;31285;-83
2023/04/23 04:06:53;;;;;;;30.30;20.77;;;;;;;-144.85;100.00;61331.59;5014972;28;30964;-84
2023/04/23 04:09:26;;;;;;;31.75;20.75;;;;;;;-144.85;100.00;61331.59;5014546;28;31898;-85
2023/04/23 04:11:54;;;;;;;28.90;19.88;;;;;;;-144.85;100.00;61331.59;5026502;28;33409;-82
2023/04/23 04:14:22;;;;;;;29.13;20.00;;;;;;;-144.85;100.00;61331.59;5024315;28;33293;-83
2023/04/23 04:16:49;;;;;;;29.13;18.00;;;;;;;-144.85;100.00;61331.59;5025026;28;30789;-83
2023/04/23 04:19:16;;;;;;;27.33;18.05;;;;;;;-144.85;100.00;61331.59;5006932;28;30529;-83
2023/04/23 04:21:43;;;;;;;30.85;18.23;;;;;;;-144.85;100.00;61331.59;5004453;28;33681;-83
2023/04/23 04:24:11;;;;;;;27.15;17.50;;;;;;;-144.85;100.00;61331.59;5004903;28;34192;-84
2023/04/23 04:26:38;;;;;;;29.73;18.25;;;;;;;-144.85;100.00;61331.59;5021072;28;32213;-84
2023/04/23 04:29:05;;;;;;;25.75;17.70;;;;;;;-144.85;100.00;61331.59;5021038;28;31075;-83
2023/04/23 04:31:33;;;;;;;24.92;17.55;;;;;;;-144.85;100.00;61331.59;5004969;28;31567;-85
2023/04/23 04:34:00;;;;;;;29.02;17.30;;;;;;;-144.85;100.00;61331.59;5004595;28;31199;-83
2023/04/23 04:36:28;;;;;;;25.73;16.95;;;;;;;-144.85;100.00;61331.59;5020475;28;32332;-83
2023/04/23 04:38:57;;;;;;;25.50;16.90;;;;;;;-144.85;100.00;61331.59;5020514;28;32185;-83
2023/04/23 04:41:24;;;;;;;26.00;16.38;;;;;;;-144.85;100.00;61331.59;5020628;28;32696;-84
2023/04/23 04:43:53;;;;;;;25.92;16.63;;;;;;;-144.85;100.00;61331.59;5021122;28;33203;-83
2023/04/23 04:46:20;;;;;;;22.95;16.15;;;;;;;-144.85;100.00;61331.59;5017983;28;32257;-83
2023/04/23 04:48:48;;;;;;;26.58;16.10;;;;;;;-144.85;100.00;61331.59;5003125;28;31767;-83
2023/04/23 04:51:15;;;;;;;25.20;16.35;;;;;;;-144.85;100.00;61331.59;5020640;28;32300;-83
2023/04/23 04:53:42;;;;;;;22.65;15.50;;;;;;;-144.85;100.00;61331.59;5003338;28;32114;-84
2023/04/23 04:56:11;;;;;;;23.42;15.23;;;;;;;-144.85;100.00;61331.59;5005383;28;20086;-85
2023/04/23 04:58:38;;;;;;;22.40;14.98;;;;;;;-144.85;100.00;61331.59;5003795;28;32162;-83
2023/04/23 05:01:05;;;;;;;25.35;15.27;;;;;;;-144.85;100.00;61331.59;5029434;28;31560;-83
2023/04/23 05:03:32;;;;;;;21.80;15.13;;;;;;;-144.85;100.00;61331.59;5023848;28;32408;-83
2023/04/23 05:06:00;;;;;;;21.40;14.77;;;;;;;-144.85;100.00;61331.59;5014872;28;32561;-83
2023/04/23 05:08:27;;;;;;;21.05;14.18;;;;;;;-144.85;100.00;61331.59;5001271;28;32060;-83
2023/04/23 05:10:54;;;;;;;22.52;15.35;;;;;;;-144.85;100.00;61331.59;5019463;28;32464;-83
2023/04/23 05:13:21;;;;;;;24.40;15.55;;;;;;;-144.85;100.00;61331.59;5001083;28;32697;-83
2023/04/23 05:15:48;;;;;;;20.80;14.15;;;;;;;-144.85;100.00;61331.59;5020339;28;31724;-85
2023/04/23 05:18:16;;;;;;;19.92;14.27;;;;;;;-144.85;100.00;61331.59;5017719;28;31834;-85
2023/04/23 05:20:43;;;;;;;21.88;14.75;;;;;;;-144.85;100.00;61331.59;5017405;28;32478;-83
2023/04/23 05:23:10;;;;;;;20.83;14.02;;;;;;;-144.85;100.00;61331.59;5017318;28;32836;-83
2023/04/23 05:25:39;;;;;;;20.50;15.02;;;;;;;-144.85;100.00;61331.59;5018339;28;31940;-83
2023/04/23 05:28:07;;;;;;;20.08;14.25;;;;;;;-144.85;100.00;61331.59;5000289;28;30633;-84
2023/04/23 05:30:35;;;;;;;18.77;13.73;;;;;;;-144.85;100.00;61331.59;5017341;28;32593;-83
2023/04/23 05:33:02;;;;;;;20.05;13.57;;;;;;;-144.85;100.00;61331.59;5017116;28;31798;-82
2023/04/23 05:35:30;;;;;;;20.00;13.57;;;;;;;-144.85;100.00;61331.59;5001596;28;30724;-83
2023/04/23 05:37:58;;;;;;;21.08;13.73;;;;;;;-144.85;100.00;61331.59;5003193;28;30735;-83
2023/04/23 05:40:25;;;;;;;19.55;13.80;;;;;;;-144.85;100.00;61331.59;5008988;28;33838;-84
2023/04/23 05:42:53;;;;;;;20.17;14.13;;;;;;;-144.85;100.00;61331.59;5000526;28;32194;-83
2023/04/23 05:45:20;;;;;;;19.70;13.75;;;;;;;-144.85;100.00;61331.59;5013527;28;31736;-83
2023/04/23 05:47:47;;;;;;;20.73;13.73;;;;;;;-144.85;100.00;61331.59;5014235;28;30506;-86
2023/04/23 05:50:15;;;;;;;21.00;13.60;;;;;;;-144.85;100.00;61331.59;5017485;28;32525;-83
2023/04/23 05:52:42;;;;;;;19.77;13.82;;;;;;;-144.85;100.00;61331.59;5016171;28;34040;-83
2023/04/23 05:55:10;;;;;;;21.38;14.25;;;;;;;-144.85;100.00;61331.59;5021139;28;32111;-83
2023/04/23 05:57:38;;;;;;;19.60;13.95;;;;;;;-144.85;100.00;61331.59;5017797;28;31224;-83
2023/04/23 06:00:08;;;;;;;20.98;14.10;;;;;;;-144.85;100.00;61331.59;5000884;28;32870;-83
2023/04/23 06:02:40;;;;;;;21.20;14.05;;;;;;;-144.85;100.00;61331.59;5005279;28;32555;-83
2023/04/23 06:05:08;;;;;;;16.70;12.85;;;;;;;-144.85;100.00;61331.59;5004911;28;32200;-83
2023/04/23 06:07:35;;;;;;;18.05;13.13;;;;;;;-144.85;100.00;61331.59;5013891;28;33222;-84
2023/04/23 06:10:04;;;;;;;19.80;13.52;;;;;;;-144.85;100.00;61331.59;5024160;28;31814;-82
2023/04/23 06:12:31;;;;;;;20.17;13.35;;;;;;;-144.85;100.00;61331.59;5009828;28;32878;-84
2023/04/23 06:14:59;;;;;;;18.48;12.63;;;;;;;-144.85;100.00;61331.59;5021978;28;32570;-83
2023/04/23 06:17:27;;;;;;;17.35;12.57;;;;;;;-144.85;100.00;61331.59;5005267;28;33332;-83
2023/04/23 06:19:54;;;;;;;17.95;12.30;;;;;;;-144.85;100.00;61331.59;5016156;28;32305;-82
2023/04/23 06:22:21;;;;;;;17.02;12.38;;;;;;;-144.85;100.00;61331.59;5015858;28;33204;-82
2023/04/23 06:24:48;;;;;;;18.48;13.00;;;;;;;-144.85;100.00;61331.59;4998896;28;31960;-83
2023/04/23 06:27:15;;;;;;;17.30;12.45;;;;;;;-144.85;100.00;61331.59;5000410;28;31974;-84
2023/04/23 06:29:47;;;;;;;16.65;11.55;;;;;;;-144.85;100.00;61331.59;5015824;28;34061;-83
2023/04/23 06:32:14;;;;;;;14.98;11.38;;;;;;;-144.85;100.00;61331.59;5000312;28;31473;-83
2023/04/23 06:34:45;;;;;;;16.60;11.75;;;;;;;-144.85;100.00;61331.59;5016992;28;33503;-84
2023/04/23 06:37:27;;;;;;;16.20;11.50;;;;;;;-144.85;100.00;61331.59;5015961;28;32290;-85
2023/04/23 06:39:57;;;;;;;15.35;11.05;;;;;;;-144.85;100.00;61331.59;4998583;28;32895;-83
2023/04/23 06:42:24;;;;;;;16.33;10.80;;;;;;;-144.85;100.00;61331.59;5012699;28;32407;-83
2023/04/23 06:45:32;;;;;;;16.20;12.07;;;;;;;-144.85;100.00;61331.59;5001602;28;32246;-83
2023/04/23 06:47:59;;;;;;;15.98;10.60;;;;;;;-144.85;100.00;61331.59;4991517;28;33327;-83
2023/04/23 06:50:26;;;;;;;13.68;10.40;;;;;;;-144.85;100.00;61331.59;4986522;28;31642;-83
2023/04/23 06:52:55;;;;;;;17.13;10.75;;;;;;;-144.85;100.00;61331.59;5015766;28;32425;-83
2023/04/23 06:55:25;;;;;;;14.63;9.75;;;;;;;-144.85;100.00;61331.59;5016099;28;32261;-83
2023/04/23 06:57:52;;;;;;;13.32;9.90;;;;;;;-144.85;100.00;61331.59;5018915;28;32988;-83
2023/04/23 07:00:21;;;;;;;16.17;9.93;;;;;;;-144.85;100.00;61331.59;5003858;28;33221;-83
2023/04/23 07:02:49;;;;;;;14.40;9.27;;;;;;;-144.85;100.00;61331.59;5001253;28;32907;-83
2023/04/23 07:05:17;;;;;;;14.90;9.57;;;;;;;-144.85;100.00;61331.59;5018143;28;31562;-84
2023/04/23 07:07:45;;;;;;;13.30;9.20;;;;;;;-144.85;100.00;61331.59;5019085;28;30565;-83
2023/04/23 07:10:12;;;;;;;14.23;8.68;;;;;;;-144.85;100.00;61331.59;5017991;28;32617;-83
2023/04/23 07:12:42;;;;;;;12.25;9.25;;;;;;;-144.85;100.00;61331.59;5020566;28;32556;-84
2023/04/23 07:15:10;;;;;;;13.90;8.52;;;;;;;-144.85;100.00;61331.59;5009464;28;32023;-83
2023/04/23 07:17:37;;;;;;;12.48;8.25;;;;;;;-144.85;100.00;61331.59;5019195;28;30268;-82
2023/04/23 07:20:05;;;;;;;12.30;7.78;;;;;;;-144.85;100.00;61331.59;5018753;28;33138;-81
2023/04/23 07:22:32;;;;;;;11.02;8.23;;;;;;;-144.85;100.00;61331.59;5017586;28;32071;-82
2023/04/23 07:25:01;;;;;;;14.43;8.20;;;;;;;-144.85;100.00;61331.59;5005273;28;32439;-82
2023/04/23 07:27:30;;;;;;;9.85;7.65;;;;;;;-144.85;100.00;61331.59;5007188;28;31986;-83
2023/04/23 07:30:01;;;;;;;16.55;7.20;;;;;;;-144.85;100.00;61331.59;5018709;28;33055;-83
2023/04/23 07:32:32;;;;;;;10.07;5.88;;;;;;;-144.85;100.00;61331.59;5002043;28;31097;-82
2023/04/23 07:34:59;;;;;;;10.27;6.22;;;;;;;-144.85;100.00;61331.59;4999926;28;31864;-82
2023/04/23 07:37:26;;;;;;;9.50;6.13;;;;;;;-144.85;100.00;61331.59;5003253;28;31208;-84
2023/04/23 07:39:53;;;;;;;10.50;6.25;;;;;;;-144.85;100.00;61331.59;5017021;28;33464;-83
2023/04/23 07:42:21;;;;;;;10.35;5.68;;;;;;;-144.85;100.00;61331.59;5002345;28;34264;-83
2023/04/23 07:44:49;;;;;;;7.63;5.35;;;;;;;-144.85;100.00;61331.59;5017306;28;31103;-83
2023/04/23 07:47:16;;;;;;;7.25;5.07;;;;;;;-144.85;100.00;61331.59;5017503;28;32012;-82
2023/04/23 07:49:43;;;;;;;10.70;5.63;;;;;;;-144.85;100.00;61331.59;5002612;28;32610;-82
2023/04/23 07:52:10;;;;;;;8.48;5.47;;;;;;;-144.85;100.00;61331.59;5019418;28;31923;-81
2023/04/23 07:54:38;;;;;;;8.27;5.43;;;;;;;-144.85;100.00;61331.59;5018236;28;31903;-81
2023/04/23 07:57:05;;;;;;;7.78;4.60;;;;;;;-144.85;100.00;61331.59;5014340;28;31516;-80
2023/04/23 07:59:32;;;;;;;8.45;4.95;;;;;;;-144.85;100.00;61331.59;5030509;28;31220;-81
2023/04/23 08:01:59;;;;;;;9.82;4.65;;;;;;;-144.85;100.00;61331.59;5001937;28;32880;-82
2023/04/23 08:04:26;;;;;;;10.82;4.63;;;;;;;-144.85;100.00;61331.59;5017663;28;32281;-82
2023/04/23 08:06:54;;;;;;;11.63;4.82;;;;;;;-144.85;100.00;61331.59;5000888;28;32314;-82
2023/04/23 08:09:21;;;;;;;7.07;4.10;;;;;;;-144.85;100.00;61331.59;5018321;28;33494;-84
2023/04/23 08:11:48;;;;;;;8.02;3.97;;;;;;;-144.85;100.00;61331.59;5018091;28;32472;-82
2023/04/23 08:14:19;;;;;;;8.35;3.80;;;;;;;-144.85;100.00;61331.59;5016877;28;32320;-82
2023/04/23 08:16:47;;;;;;;6.40;3.67;;;;;;;-144.85;100.00;61331.59;5017880;28;32283;-82
2023/04/23 08:19:15;;;;;;;5.53;3.35;;;;;;;-144.85;100.00;61331.59;5018301;28;33469;-81
2023/04/23 08:21:42;;;;;;;6.72;3.38;;;;;;;-144.85;100.00;61331.59;5000697;28;32298;-82
2023/04/23 08:24:09;;;;;;;5.65;2.90;;;;;;;-144.85;100.00;61331.59;5015768;28;31811;-84
2023/04/23 08:26:36;;;;;;;6.78;3.30;;;;;;;-144.85;100.00;61331.59;5016762;28;31486;-82
2023/04/23 08:29:04;;;;;;;5.68;3.22;;;;;;;-144.85;100.00;61331.59;5001498;28;32652;-82
2023/04/23 08:31:32;;;;;;;8.68;3.17;;;;;;;-144.85;100.00;61331.59;5014018;28;31870;-82
2023/04/23 08:34:00;;;;;;;5.90;3.08;;;;;;;-144.85;100.00;61331.59;5017178;28;30624;-82
2023/04/23 08:36:28;;;;;;;7.82;2.85;;;;;;;-144.85;100.00;61331.59;5019672;28;32450;-81
2023/04/23 08:38:55;;;;;;;6.95;3.25;;;;;;;-144.85;100.00;61331.59;5017242;28;32596;-83
2023/04/23 08:41:26;;;;;;;8.40;3.30;;;;;;;-144.85;100.00;61331.59;5016931;28;32439;-81
2023/04/23 08:44:10;;;;;;;10.10;3.35;;;;;;;-144.85;100.00;61331.59;5003330;28;31995;-83
2023/04/23 08:46:42;;;;;;;6.50;3.20;;;;;;;-144.85;100.00;61331.59;5017946;28;30803;-82
2023/04/23 08:49:18;;;;;;;6.85;2.70;;;;;;;-144.85;100.00;61331.59;5004119;28;31452;-81
2023/04/23 08:51:53;;;;;;;7.97;2.72;;;;;;;-144.85;100.00;61331.59;4996317;28;33287;-82
2023/04/23 08:54:25;;;;;;;;;;;;;;;-144.85;100.00;61331.59;5018030;28;32241;-81
2023/04/23 08:56:57;;;;;;;7.43;2.47;;;;;;;-144.85;100.00;61331.59;5018922;28;31400;-82
2023/04/23 08:59:30;;;;;;;7.72;2.50;;;;;;;-144.85;100.00;61331.59;5016761;28;31291;-81
2023/04/23 09:02:00;;;;;;;10.25;2.47;;;;;;;-144.85;100.00;61331.59;5021147;28;31418;-82
2023/04/23 09:04:27;;;;;;;8.25;2.40;;;;;;;-144.85;100.00;61331.59;5033306;28;32307;-81
2023/04/23 09:06:55;;;;;;;7.28;2.38;;;;;;;-144.85;100.00;61331.59;5018443;28;32477;-82
2023/04/23 09:09:23;;;;;;;7.20;2.30;;;;;;;-144.85;100.00;61331.59;5017853;28;32099;-82
2023/04/23 09:11:50;;;;;;;5.53;2.20;;;;;;;-144.85;100.00;61331.59;5016919;28;32650;-82
2023/04/23 09:14:24;;;;;;;9.27;2.25;;;;;;;-144.85;100.00;61331.59;5027039;28;31474;-81
2023/04/23 09:16:52;;;;;;;9.77;2.70;;;;;;;-144.85;100.00;61331.59;5019378;28;31014;-82
2023/04/23 09:19:20;;;;;;;8.18;2.22;;;;;;;-144.85;100.00;61331.59;5018791;28;32760;-82
2023/04/23 09:21:47;;;;;;;6.80;2.38;;;;;;;-144.85;100.00;61331.59;5017123;28;31189;-82
2023/04/23 09:24:16;;;;;;;6.38;2.15;;;;;;;-144.85;100.00;61331.59;4997766;28;32330;-82
2023/04/23 09:26:46;;;;;;;5.80;1.85;;;;;;;-144.85;100.00;61331.59;5015646;28;32293;-81
2023/04/23 09:29:18;;;;;;;6.20;1.83;;;;;;;-144.85;100.00;61331.59;5010402;28;33292;-81
2023/04/23 09:31:48;;;;;;;7.50;1.98;;;;;;;-144.85;100.00;61331.59;5015597;28;31844;-82
2023/04/23 09:34:21;;;;;;;8.38;2.17;;;;;;;-144.85;100.00;61331.59;5018009;28;32490;-81
2023/04/23 09:36:50;;;;;;;8.07;1.45;;;;;;;-144.85;100.00;61331.59;5017721;28;31555;-81
2023/04/23 09:39:21;;;;;;;5.32;1.50;;;;;;;-144.85;100.00;61331.59;5000965;28;33121;-81
2023/04/23 09:41:50;;;;;;;5.88;1.50;;;;;;;-144.85;100.00;61331.59;5018352;28;31499;-82
2023/04/23 09:44:21;;;;;;;4.55;1.42;;;;;;;-144.85;100.00;61331.59;5031553;28;32036;-82
2023/04/23 09:46:49;;;;;;;7.22;1.70;;;;;;;-144.85;100.00;61331.59;5027137;28;32397;-82
2023/04/23 09:49:16;;;;;;;7.10;1.80;;;;;;;-144.85;100.00;61331.59;5022923;28;32308;-83
2023/04/23 09:51:48;;;;;;;3.97;1.42;;;;;;;-144.85;100.00;61331.59;5028009;28;32534;-82
2023/04/23 09:54:20;;;;;;;4.55;1.30;;;;;;;-144.85;100.00;61331.59;5027932;28;31749;-82
2023/04/23 09:57:00;;;;;;;7.95;1.80;;;;;;;-144.85;100.00;61331.59;5005317;28;30049;-82
2023/04/23 09:59:29;;;;;;;5.85;1.58;;;;;;;-144.85;100.00;61331.59;5018795;28;32360;-82
2023/04/23 10:02:06;;;;;;;5.22;1.42;;;;;;;-144.85;100.00;61331.59;5001677;28;30733;-81
2023/04/23 10:04:34;;;;;;;7.03;1.90;;;;;;;-144.85;100.00;61331.59;5016339;28;31751;-82
2023/04/23 10:07:07;;;;;;;4.53;1.63;;;;;;;-144.85;100.00;61331.59;5020488;28;32683;-82
2023/04/23 10:09:46;;;;;;;7.38;1.48;;;;;;;-144.85;100.00;61331.59;5015522;28;32135;-82
2023/04/23 10:12:13;;;;;;;5.60;1.60;;;;;;;-144.85;100.00;61331.59;5017430;28;32876;-83
2023/04/23 10:14:45;;;;;;;4.15;1.35;;;;;;;-144.85;100.00;61331.59;5017518;28;33047;-82
2023/04/23 10:17:12;;;;;;;4.40;1.58;;;;;;;-144.85;100.00;61331.59;5018612;28;31608;-82
2023/04/23 10:19:41;;;;;;;6.18;1.40;;;;;;;-144.85;100.00;61331.59;5018971;28;32376;-82
2023/04/23 10:22:12;;;;;;;7.20;1.70;;;;;;;-144.85;100.00;61331.59;5016454;28;32255;-82
2023/04/23 10:24:45;;;;;;;5.55;1.50;;;;;;;-144.85;100.00;61331.59;5001298;28;30761;-83
2023/04/23 10:27:16;;;;;;;6.50;1.65;;;;;;;-144.85;100.00;61331.59;5015816;28;32369;-82
2023/04/23 10:30:04;;;;;;;6.15;1.63;;;;;;;-144.85;100.00;61331.59;5016458;28;32486;-82
2023/04/23 10:32:33;;;;;;;5.20;1.45;;;;;;;-144.85;100.00;61331.59;5040641;28;31891;-83
2023/04/23 10:35:00;;;;;;;4.75;1.25;;;;;;;-144.85;100.00;61331.59;5017835;28;31228;-82
2023/04/23 10:37:28;;;;;;;8.32;1.50;;;;;;;-144.85;100.00;61331.59;5021481;28;33213;-82
2023/04/23 10:40:03;;;;;;;6.90;1.60;;;;;;;-144.85;100.00;61331.59;5021864;28;31939;-82
2023/04/23 10:42:30;;;;;;;;;;;;;;;-144.85;100.00;61331.59;5034408;28;32266;-82
2023/04/23 10:44:57;;;;;;;5.80;1.60;;;;;;;-144.85;100.00;61331.59;5033475;28;33513;-83
2023/04/23 10:47:33;;;;;;;5.90;1.80;;;;;;;-144.85;100.00;61331.59;5022252;28;30474;-82
2023/04/23 10:50:24;;;;;;;3.92;1.58;;;;;;;-144.85;100.00;61331.59;5028997;28;32374;-81
2023/04/23 10:52:52;;;;;;;7.13;1.60;;;;;;;-144.85;100.00;61331.59;5019168;28;32783;-82
2023/04/23 10:55:26;;;;;;;3.95;1.45;;;;;;;-144.85;100.00;61331.59;5022672;28;31780;-83
2023/04/23 10:58:02;;;;;;;4.60;1.67;;;;;;;-144.85;100.00;61331.59;5008482;28;31345;-83
2023/04/23 11:00:51;;;;;;;3.33;1.40;;;;;;;-144.85;100.00;61331.59;5022996;28;33635;-83
2023/04/23 11:03:37;;;;;;;6.70;1.60;;;;;;;-144.85;100.00;61331.59;5028502;28;32164;-82
2023/04/23 11:06:19;;;;;;;5.40;1.55;;;;;;;-144.85;100.00;61331.59;5006160;28;30841;-81
2023/04/23 11:08:55;;;;;;;5.50;1.63;;;;;;;-144.85;100.00;61331.59;5030595;28;31317;-82